International TAF

Brunei, China, Hong Kong, Malaysia, Philippines, Taiwan

The availability of aerodrome forecasts from overseas locations is dependent on the regular international exchange of data. Some locations may at times be absent. If this problem persists, please advise webav@bom.gov.au

 back to top

ZSPD 03/12/2020 UTC

TAF ZSPD 030914Z 0312/0412 35008MPS 6000 BKN016 TX11/0406Z
TN04/0320Z

WIDD 03/12/2020 UTC

TAF WIDD 031100Z 0312/0412 07004KT 9999 SCT014

WAMM 03/12/2020 UTC

TAF WAMM 031100Z 0312/0418 25005KT 9000 SCT020
BECMG 0322/0401 VRB03KT

WBSB 03/12/2020 UTC

TAF WBSB 031100Z 0312/0418 20003KT 9999 FEW015 FEW016CB
TEMPO 0318/0320 7000 SHRA
BECMG 0403/0405 32010KT SCT016 FEW017CB

WBKK 03/12/2020 UTC

TAF WBKK 031100Z 0312/0412 11005KT 9999 FEW014
BECMG 0400/0402 29005KT

WBGG 03/12/2020 UTC

TAF WBGG 031100Z 0312/0412 VRB03KT 9999 FEW020

VHHH 03/12/2020 UTC

TAF VHHH 031100Z 0312/0418 01015KT 9999 FEW040 TX18/0406Z
TN12/0322Z

VMMC 03/12/2020 UTC

TAF VMMC 031100Z 0312/0418 36018KT 9999 FEW040
TEMPO 0312/0404 36022G32KT

ZGSZ 03/12/2020 UTC

TAF ZGSZ 030904Z 0312/0412 03007MPS 8000 FEW040 TX20/0406Z
TN14/0322Z

RCTP 03/12/2020 UTC

TAF RCTP 031100Z 0312/0418 04022G33KT 7000 SCT008 BKN017 BKN040
TEMPO 0312/0318 5000 RA SCT006 BKN011 BKN030
TEMPO 0401/0407 FEW010 BKN032
TEMPO 0408/0414 5000 RA SCT006 BKN011 BKN030

RCKH 03/12/2020 UTC

TAF RCKH 031100Z 0312/0418 35005KT 7000 FEW016 SCT030 BKN070
TEMPO 0319/0401 36008G18KT
TEMPO 0403/0409 30010KT
TEMPO 0410/0416 36008G18KT

ZGGG 03/12/2020 UTC

TAF ZGGG 030901Z 0312/0412 02006MPS CAVOK TX21/0407Z TN11/0322Z

ZBAA 03/12/2020 UTC

TAF ZBAA 030901Z 0312/0412 32004MPS CAVOK TX04/0407Z TNM09/0321Z

ZSSS 03/12/2020 UTC

TAF ZSSS 030906Z 0312/0412 34008MPS 6000 BKN015 TX11/0406Z
TN05/0320Z

ZBTJ 03/12/2020 UTC

TAF ZBTJ 030904Z 0312/0412 34003MPS 5000 HZ NSC TX04/0407Z
TNM05/0322Z BECMG 0401/0402 34008MPS BECMG 0408/0409 25004MPS

ZBYN 03/12/2020 UTC

TAF ZBYN 030905Z 0312/0412 33004MPS 6000 NSC TX01/0407Z
TNM09/0322Z

ZSHC 03/12/2020 UTC

TAF ZSHC 030901Z 0312/0412 36005MPS 3000 BR NSC TX10/0406Z
TN04/0321Z

ZSOF 03/12/2020 UTC

TAF ZSOF 030902Z 0312/0412 01003MPS 3000 HZ NSC TX08/0406Z
TN00/0322Z

ZWWW 03/12/2020 UTC

TAF ZWWW 030901Z 0312/0412 33002MPS 3100 BR BKN020 TXM07/0409Z
TNM15/0323Z BECMG 0313/0314 1400 -SN BR BKN011 BECMG 0402/0403 2000
BR
BKN020

ZYTL 03/12/2020 UTC

TAF ZYTL 030902Z 0312/0412 30003MPS 5000 BR SCT033 TX03/0406Z
TNM03/0321Z

RPLL 03/12/2020 UTC

TAF RPLL 031100Z 0312/0418 10008KT 9999 FEW025 BKN100 TX30/0406Z TN26/0321Z
TEMPO 0312/0318 14006KT 9000 SCT023 BKN100 TEMPO 0318/0324 06004KT SCT023 BKN090

RPVM 03/12/2020 UTC

TAF RPVM 031100Z 0312/0418 04005KT 9999 FEW020 BKN300 TEMPO 0318/0324 VRB03KT
9000 -SHRA FEW018CB FEW020 BKN100 TEMPO 0400/0406 12004KT FEW018CB FEW020 BKN250

RPMZ 03/12/2020 UTC

TAF RPMZ 031100Z 0312/0412 24007KT 9999 FEW017 BKN300 TEMPO 0312/0318 28004KT
-SHRA FEW016CB SCT017 BKN090

Australian International

The availability of aerodrome forecasts from overseas locations is dependent on the regular international exchange of data. Some locations may at times be absent. If this problem persists, please advise webav@bom.gov.au

 back to top

YMML 03/12/2020 UTC

TAF YMML 031058Z 0312/0418
23005KT CAVOK
FM031500 26005KT 9999 FEW015
FM032100 22008KT 9999 SCT020
FM040100 20010KT 9999 SCT045
FM041000 VRB05KT CAVOK
RMK
T 14 11 11 14 Q 1017 1016 1015 1017
TAF3

YSSY 03/12/2020 UTC

TAF YSSY 031106Z 0312/0418
36010KT 9999 SCT013 BKN030
FM031400 30006KT 9999 SCT012
FM032100 25010KT CAVOK
FM040200 13010KT CAVOK
FM040600 05010KT CAVOK
FM041100 17014KT 9999 SCT015 BKN025
RMK
T 21 21 20 22 Q 1016 1014 1012 1014
TAF3

YBBN 03/12/2020 UTC

TAF YBBN 031106Z 0312/0418
05008KT 9999 FEW030
FM031400 35005KT 9999 SCT025
FM032300 02010KT 9999 FEW035
FM040300 02017KT 9999 FEW040
FM041200 35008KT 9999 FEW030
PROB30 0409/0414 VRB20G40KT 2000 TSRA BKN015 SCT040CB
RMK
T 24 23 22 25 Q 1019 1017 1016 1017
TAF3

YSCB 03/12/2020 UTC

TAF AMD YSCB 031126Z 0312/0412
VRB03KT CAVOK
FM032300 27015G25KT CAVOK
FM040200 27012KT CAVOK
FM040800 30008KT CAVOK
FM041000 VRB03KT CAVOK
RMK
T 15 12 11 16 Q 1017 1016 1015 1016
TAF3

YBCS 03/12/2020 UTC

TAF AMD YBCS 031109Z 0311/0412
17005KT 9999 SCT025
FM031400 17005KT 9999 -SHRA FEW015 SCT022
FM032300 11014KT 9999 NSW SCT040
FM041000 13005KT 9999 SCT025
INTER 0314/0320 6000 SHRA SCT015
RMK
T 26 25 24 25 Q 1013 1013 1011 1012
TAF3

YBAS 03/12/2020 UTC

TAF YBAS 030514Z 0306/0406
12012KT CAVOK
RMK
T 38 36 31 27 Q 1013 1013 1015 1015

YBMA 03/12/2020 UTC

TAF YBMA 031109Z 0312/0400
08006KT CAVOK
FM032200 02012KT CAVOK
RMK
T 33 31 28 30 Q 1010 1010 1010 1012

YPAD 03/12/2020 UTC

TAF YPAD 030801Z 0309/0412
21012KT CAVOK
FM031000 18008KT CAVOK
FM031400 13006KT CAVOK
FM031800 08005KT CAVOK
FM040300 21008KT CAVOK
RMK
T 22 18 16 15 Q 1018 1019 1018 1017
TAF3

YPDN 03/12/2020 UTC

TAF AMD YPDN 031126Z 0312/0418
08007KT 9999 -RA SCT020 BKN070
FM031400 14005KT 9999 NSW SCT020
FM040000 08010KT 9999 FEW025
FM040300 03012KT 9999 -SHRA SCT040
FM040900 08008KT 9999 -SHRA SCT020
FM041400 14005KT 9999 NSW SCT020
TEMPO 0312/0315 7000 RA FEW010 SCT020
PROB30 TEMPO 0405/0412 VRB25G40KT 1000 TSRA BKN010 SCT030CB
PROB30 TEMPO 0416/0418 VRB20G35KT 1000 TSRA BKN010 SCT020CB
RMK
T 24 25 26 26 Q 1009 1008 1007 1007
TAF3

YPTN 03/12/2020 UTC

TAF AMD YPTN 030814Z 0308/0406
05010KT 9999 SCT040
FM032100 05005KT 9999 FEW010
FM040000 06010KT 9999 SCT035
PROB30 TEMPO 0308/0312 VRB25G35KT 1000 TSRA BKN010 SCT060CB
RMK
T 29 29 28 27 Q 1007 1009 1010 1008

YPPH 03/12/2020 UTC

TAF YPPH 031106Z 0312/0418
21011KT CAVOK
FM031900 19006KT 9999 BKN025
FM040200 24016KT 9999 SCT030
FM041000 21010KT 9999 BKN030
RMK
T 19 16 14 13 Q 1011 1012 1012 1013
TAF3

YPLM 03/12/2020 UTC

TAF YPLM 031039Z 0312/0412
28014KT CAVOK
FM031500 20010KT CAVOK
FM040000 17012KT CAVOK
FM040700 23020KT CAVOK
RMK
T 26 24 23 21 Q 1009 1011 1010 1010

YCAR 03/12/2020 UTC

TAF YCAR 030322Z 0304/0312
21018KT CAVOK
RMK
T 28 28 25 Q 1010 1008 1009

YPCC 03/12/2020 UTC

TAF YPCC 031110Z 0312/0412
13014KT 9999 SCT018 BKN025
FM040100 13014KT 9999 SCT025
RMK
T 27 27 27 26 Q 1010 1012 1011 1009

YPPD 03/12/2020 UTC

TAF YPPD 031055Z 0312/0412
35009KT CAVOK
FM031600 22006KT 9999 SCT010
FM040000 22009KT CAVOK
FM040300 33012KT CAVOK
RMK
T 30 29 28 27 Q 1009 1010 1008 1009

YBTL 03/12/2020 UTC

TAF YBTL 030913Z 0310/0406
09012KT 9999 FEW025
FM031500 11009KT 9999 SCT020
FM032300 07017KT 9999 SCT035
RMK
T 27 26 25 25 Q 1014 1015 1013 1013
TAF3 VALID TL 031100

YMHB 03/12/2020 UTC

TAF YMHB 031056Z 0312/0412
33012KT 9999 SCT045
FM032100 26020G30KT 9999 -SHRA BKN030
FM040100 25017G27KT 9999 NSW SCT050
FM040900 28010KT 9999 SCT040
INTER 0321/0400 27030G40KT 5000 SHRA BKN020
RMK FM031200 MOD TURB BLW 5000FT TL031500
FM031500 SEV TURB BLW 5000FT TL040100
FM040100 MOD TURB BLW 5000FT TL040700
T 13 13 12 14 Q 1012 1010 1007 1006
TAF3

YPXM 03/12/2020 UTC

TAF AMD YPXM 031050Z 0310/0412
09006KT 9999 -SHRA SCT005 BKN014
FM040200 12008KT 9999 -SHRA BKN005 BKN010
TEMPO 0312/0412 0500 +SHRA BKN005 SCT010TCU
PROB30 TEMPO 0312/0412 VRB20G35KT 0400 TSRA BKN002 SCT010CB
RMK
T 25 25 24 24 Q 1009 1010 1010 1008

New Zealand

The availability of aerodrome forecasts from overseas locations is dependent on the regular international exchange of data. Some locations may at times be absent. If this problem persists, please advise webav@bom.gov.au

 back to top

NZAA 03/12/2020 UTC

TAF NZAA 031101Z 0312/0412 24012KT 9999 FEW030
BECMG 0410/0412 VRB02KT

NZWN 03/12/2020 UTC

TAF NZWN 031101Z 0312/0412 36015KT CAVOK
BECMG 0322/0400 34018G30KT

NZCH 03/12/2020 UTC

TAF NZCH 031101Z 0312/0412 29005KT CAVOK
BECMG 0400/0402 31015G25KT
BECMG 0406/0408 28010KT

YLHI 03/12/2020 UTC

TAF YLHI 031106Z 0312/0412
09014KT 5000 -SHRA BKN008
FM040000 30006KT 9999 -SHRA BKN015
FM040600 31010KT 9999 -SHRA SCT020
TEMPO 0312/0400 3000 DZ BKN005
PROB30 TEMPO 0400/0406 3000 TSRA BKN008 FEW080CB
RMK
T 20 20 20 22 Q 1019 1017 1017 1016

YSNF 03/12/2020 UTC

TAF YSNF 031107Z 0312/0412
VRB03KT 9999 SCT025
RMK
T 18 18 18 21 Q 1020 1017 1017 1018

Indonesia, Malaysia, Myanmar, Singapore, Thailand, Vietnam

The availability of aerodrome forecasts from overseas locations is dependent on the regular international exchange of data. Some locations may at times be absent. If this problem persists, please advise webav@bom.gov.au

 back to top

WADA

TAF not available.

WAAA 03/12/2020 UTC

TAF WAAA 031100Z 0312/0418 11005KT 8000 SCT019
TEMPO 0312/0317 5000 TSRA FEW018CB
BECMG 0402/0404 29010KT 9999

WIII 03/12/2020 UTC

TAF WIII 031100Z 0312/0418 26005KT 7000 SCT020 TEMPO 0313/0317
30010G20KT 3000 TSRA FEW018CB OVC020 BECMG 0401/0403 30010KT TEMPO
0412/0415 3000 TSRA FEW018CB OVC020

WIHH 03/12/2020 UTC

TAF WIHH 031100Z 0312/0412 28008KT 6000 SCT020 BECMG 0313/0315 20005KT 5000 HZ

WIMM 03/12/2020 UTC

TAF WIMM 031100Z 0312/0412 VRB12KT 4000 BR FEW016CB BKN017
TEMPO 0312/0316 TSRA
BECMG 0402/0404 36010KT 9999 NSW SCT020

WIPP 03/12/2020 UTC

TAF WIPP 031100Z 0312/0412 30007KT 9999 SCT010
TEMPO 0312/0314 5000 HZ
TEMPO 0316/0320 4000 -RA FEW010CB BKN010
TEMPO 0321/0324 3000 BR

WIKD

TAF not available.

WARR 03/12/2020 UTC

TAF WARR 031100Z 0312/0412 22008KT 8000 SCT020
TEMPO 0312/0314 5000 -TSRA SCT018CB
BECMG 0318/0320 24003KT 5000 HZ
BECMG 0401/0403 08010KT 9999 NSW

WADD 03/12/2020 UTC

TAF WADD 031100Z 0312/0412 27010KT 9999 SCT016
TEMPO 0400/0404 FEW015CB
TEMPO 0406/0410 5000 RA FEW015CB

WRRA

TAF not available.

WALL 03/12/2020 UTC

TAF WALL 031100Z 0312/0418 00000KT 9000 FEW018CB SCT018 TEMPO 0317/0321 6000 -RA

WSSS 03/12/2020 UTC

TAF WSSS 031100Z 0312/0418 33008KT 9999 FEW015 SCT020
TEMPO 0406/0410 3000 TSRA FEW012CB BKN015

WSAP 03/12/2020 UTC

TAF WSAP 031100Z 0312/0418 33008KT 9999 FEW015 SCT020
TEMPO 0406/0410 3000 TSRA FEW012CB BKN015

WMKK 03/12/2020 UTC

TAF WMKK 031100Z 0312/0418 33005KT 9999 FEW022
TEMPO 0320/0401 3000 TSRA FEW010 FEW016CB SCT026

WMSA 03/12/2020 UTC

TAF WMSA 031100Z 0312/0412 35005KT 9000 FEW026
PROB30 TEMPO 0320/0400 4000 TSRA FEW016CB SCT018

WMKP 03/12/2020 UTC

TAF WMKP 031100Z 0312/0412 VRB03KT 9000 FEW025
TEMPO 0322/0400 8000 RA FEW010 FEW017CB
BECMG 0400/0402 12008KT 9999 FEW020
TEMPO 0408/0412 7000 -TSRA FEW010 FEW017CB

WMKJ 03/12/2020 UTC

TAF WMKJ 031100Z 0312/0412 01005KT 9999 FEW018
TEMPO 0312/0315 5000 TSRA FEW010 FEW017CB

WMKD 03/12/2020 UTC

TAF WMKD 031100Z 0312/0412 VRB03KT 9999 FEW024
TEMPO 0312/0316 8000 -RA FEW017CB

WMKB 03/12/2020 UTC

TAF WMKB 031100Z 0312/0412 VRB03KT 8000 FEW024
TEMPO 0312/0315 5000 TSRA FEW008 FEW017CB
TEMPO 0409/0412 5000 TSRA FEW010 FEW017CB

VTBD 03/12/2020 UTC

TAF VTBD 030500Z 0306/0412 05008KT 9999 FEW030 BECMG 0316/0318
34005KT BECMG 0402/0404 06008KT

VTBS 03/12/2020 UTC

TAF VTBS 030500Z 0306/0412 06010KT 9999 FEW030

VTBU 03/12/2020 UTC

TAF VTBU 030500Z 0306/0406 03010KT 9999 FEW020

VTCC 03/12/2020 UTC

TAF VTCC 030500Z 0306/0412 22005KT 9999 FEW035

VTSP 03/12/2020 UTC

TAF VTSP 030500Z 0306/0412 08006KT 9999 FEW020 SCT100 TEMPO 0306/0312
5000 RA SCT020 BKN100

VTSS 03/12/2020 UTC

TAF VTSS 030500Z 0306/0406 07006KT 8000 -RA SCT015 OVC100 TEMPO
0306/0312 3000 RA

VVTS 03/12/2020 UTC

TAF VVTS 030500Z 0306/0412 01008KT 9999 SCT017 SCT050

VDPP 03/12/2020 UTC

TAF VDPP 030500Z 0306/0324 05009KT 9999 SCT017 TEMPO 0306/0311
05016G27KT

VVNB 03/12/2020 UTC

TAF VVNB 030500Z 0306/0406 03009KT CAVOK

VYYY 03/12/2020 UTC

TAF VYYY 030500Z 0306/0406 34006KT 8000 SCT020 SCT100 BECMG 0306/0308
04006KT TEMPO 0314/0320 18005KT BECMG 0400/0402 04005KT 3000 BR
TEMPO 0402/0406 14008KT

South America

The availability of aerodrome forecasts from overseas locations is dependent on the regular international exchange of data. Some locations may at times be absent. If this problem persists, please advise webav@bom.gov.au

 back to top

SAEZ 03/12/2020 UTC

TAF SAEZ 031100Z 0312/0412 24005KT CAVOK TX25/0318Z TN12/0409Z
BECMG 0321/0400 VRB05KT 9999 SCT040
BECMG 0402/0404 16010G20KT 9999 SCT010

SAVC 03/12/2020 UTC

TAF SAVC 030500Z 0306/0406 27020KT CAVOK
TX17/0318Z TN10/0311Z
TEMPO 0306/0310 25020G35KT
BECMG 0312/0314 18015KT
BECMG 0318/0320 07015KT

SCIE 03/12/2020 UTC

TAF SCIE 031008Z 0312/0412 20010KT CAVOK TX19/0318Z TN10/0410Z
TEMPO 0312/0314 15004KT
BECMG 0315/0317 24017KT
BECMG 0402/0404 20008KT
BECMG 0406/0408 15004KT

SACO 03/12/2020 UTC

TAF SACO 031100Z 0312/0412 27005KT CAVOK TX31/0318Z TN13/0410Z
BECMG 0314/0316 05015KT 9999 SCT030 FEW035TCU
BECMG 0400/0402 32005KT 9999 SCT025 FEW040CB
BECMG 0405/0407 18015G25KT 6000 TSRA BKN020 FEW040CB OVC050

SCIP 03/12/2020 UTC

TAF SCIP 031027Z 0312/0412 35010KT 9999 FEW025 SCT060 TN20/0407Z
TX26/0319Z
TEMPO 0312/0314 03004KT 7000 -SHRA SCT015 BKN030
TEMPO 0318/0401 32015KT 7000 -SHRA SCT015 BKN030
BECMG 0403/0405 35004KT

SAZM 03/12/2020 UTC

TAF SAZM 031100Z 0312/0412 20010KT 9999 SCT010 TX21/0318Z
TN09/0408Z
BECMG 0313/0315 16015KT 9999 SCT025
TEMPO 0322/0401 8000 SHRA BKN025 FEW040CB
BECMG 0402/0404 23015KT 9999 SCT015

SAME 03/12/2020 UTC

TAF SAME 031100Z 0312/0412 18005KT 9999 FEW040 TX31/0320Z
TN17/0410Z
BECMG 0404/0406 14010KT 9999 VCTSRA SCT030 FE040TCU
FEW040CB

SUMU 03/12/2020 UTC

TAF SUMU 031130Z 0312/0412 20012KT 9999 FEW023 TX25/0318Z TN16/0409Z
BECMG 0400/0402 09005KT

SAZN 03/12/2020 UTC

TAF SAZN 030500Z 0306/0406 25015G25KT CAVOK
TX28/0319Z TN12/0309Z
BECMG 0312/0314 25005KT

SCTE 03/12/2020 UTC

TAF SCTE 031020Z 0312/0412 21005KT 9999 FEW025 SCT040 TN11/0312Z
TX15/0319Z
TEMPO 0312/0316 17013KT BKN040
BECMG 0316/0318 16012KT
BECMG 0319/0321 19005KT CAVOK
BECMG 0404/0406 SCT016
TEMPO 0407/0412 19012KT BKN016

SCCI 03/12/2020 UTC

TAF SCCI 031030Z 0312/0412 24020G30KT 9999 SCT034 TN03/0312Z
TX11/0318Z
BECMG 0315/0317 27020G30KT BKN036
TEMPO 0315/0322 26025G35KT 6000 SHRA SCT012 BKN030
BECMG 0401/0403 24015G25KT SCT036
BECMG 0409/0411 FEW036

SAWG 03/12/2020 UTC

TAF SAWG 031100Z 0312/0412 25030G45KT 9999 FEW020 SCT030
TX12/0318Z
TN04/0411Z
BECMG 0406/0408 25020G30KT SCT030 BKN090

SAAR 03/12/2020 UTC

TAF SAAR 030500Z 0306/0406 16005KT 5000 BR SCT015 TX29/0319Z
TN14/0309Z
TEMPO 0306/0309 0800 FG SCT005
BECMG 0310/0312 05010KT CAVOK
BECMG 0401/0403 18015KT

SAZS 03/12/2020 UTC

TAF SAZS 030500Z 0306/0406 29015KT CAVOK TX18/0318Z TN02/0309Z
BECMG 0308/0310 25005KT
BECMG 0401/0402 VRB03KT

SCEL 03/12/2020 UTC

TAF SCEL 031007Z 0312/0412 15004KT CAVOK TX28/0319Z TN10/0410Z
TEMPO 0312/0314 VRB02KT 7000 NSC
BECMG 0314/0316 19010KT
BECMG 0319/0321 21015KT
BECMG 0402/0404 15006KT

SAWH 03/12/2020 UTC

TAF SAWH 031100Z 0312/0412 23025G40KT 5000 SHRASN FEW010 SCT020
BKN030 TX07/0318Z TNM00/0312Z
TEMPO 0312/0316 1000 SN OVC010
BECMG 0315/0317 25015KT 9999 -SHRA BKN030
BECMG 0321/0323 23020G30KT

Guam, Japan, Korea

The availability of aerodrome forecasts from overseas locations is dependent on the regular international exchange of data. Some locations may at times be absent. If this problem persists, please advise webav@bom.gov.au

 back to top

PGUA 03/12/2020 UTC

TAF PGUA 031000Z 0310/0416 15009KT 9999 BKN015 BKN020 QNH2981INS
TEMPO 0310/0315 SCT015
BECMG 0317/0318 12012KT 8000 -SHRA SCT008 BKN015 QNH2980INS
TEMPO 0320/0323 14015G20KT 4800 VCTS BKN008CB
BECMG 0322/0323 12012G18KT 9999 NSW SCT015 BKN020 QNH2982INS
TX28/0403Z TN24/0318Z

PGUM 03/12/2020 UTC

TAF PGUM 030532Z 0306/0412 15010KT P6SM VCSH FEW016 SCT050 BKN100

PGSN 03/12/2020 UTC

TAF PGSN 030532Z 0306/0406 VRB06KT 6SM -RA VCSH SCT015 SCT040 OVC100
FM030900 10010KT P6SM VCSH SCT018 SCT050 BKN120

PTRO 03/12/2020 UTC

TAF PTRO 030532Z 0306/0406 VRB05KT P6SM VCSH SCT015 SCT120

RJOO

03/12/2020 UTC

TAF RJOO 031107Z 0312/0418 33008KT 9999 FEW020 SCT035

RJOB 03/12/2020 UTC

TAF RJOB 031109Z 0312/0418 30007KT 9999 FEW030 BECMG 0319/0321
36005KT

RJGG 03/12/2020 UTC

TAF RJGG 031105Z 0312/0418 32022KT 9999 FEW030 SCT050 BECMG
0412/0415 34010KT

RJCC 03/12/2020 UTC

TAF RJCC 031105Z 0312/0418 05005KT 9999 FEW015 BKN030 BECMG
0312/0314 21005KT BECMG 0400/0403 31009KT BECMG 0406/0409
18007KT

RJSS 03/12/2020 UTC

TAF RJSS 031105Z 0312/0418 30007KT 9999 FEW020 TEMPO 0400/0406
30015G25KT

RJFK 03/12/2020 UTC

TAF RJFK 031108Z 0312/0418 35011KT 9999 FEW035

RJAA 03/12/2020 UTC

TAF RJAA 031105Z 0312/0418 36010KT 9999 FEW030 SCT040

RJBB 03/12/2020 UTC

TAF RJBB 031105Z 0312/0418 34015KT 9999 FEW025 SCT040 BECMG
0322/0400 04010KT BECMG 0415/0418 12004KT

RJTT 03/12/2020 UTC

TAF RJTT 031105Z 0312/0418 34006KT 9999 FEW030 SCT045 BECMG
0314/0316 36018KT BECMG 0406/0409 04008KT

RJFF 03/12/2020 UTC

TAF RJFF 031107Z 0312/0418 34006KT 9999 FEW030 SCT045 BECMG
0412/0415 14004KT

RJFT 03/12/2020 UTC

TAF RJFT 031105Z 0312/0418 06006KT 9999 FEW030 BECMG 0400/0403
31005KT BECMG 0409/0412 06005KT

RJFU 03/12/2020 UTC

TAF RJFU 031105Z 0312/0418 36013KT 9999 FEW030 BKN050

ROAH 03/12/2020 UTC

TAF ROAH 031105Z 0312/0418 03022KT 8000 FEW008 BKN025 TEMPO
0312/0318 03024G36KT 3000 RA BR FEW006 BKN008 TEMPO
0318/0418 03027G40KT

RKSS 03/12/2020 UTC

TAF RKSS 031100Z 0312/0418 32006KT CAVOK
TNM06/0322Z TX05/0405Z
BECMG 0409/0410 06005KT 9999 BKN030

RKSI 03/12/2020 UTC

TAF RKSI 031100Z 0312/0418 32015G25KT CAVOK
TNM03/0322Z TX05/0406Z
BECMG 0313/0314 33007KT
BECMG 0409/0410 07006KT 9999 BKN030

RKSM 02/12/2020 UTC

TAF RKSM 022300Z 0300/0406 30006KT 9999 SCT030 TX04/0306Z
TNM05/0321Z

RKPK 03/12/2020 UTC

TAF RKPK 031100Z 0312/0418 33006KT CAVOK
TNM02/0321Z TX08/0406Z

RKPC 03/12/2020 UTC

TAF RKPC 031100Z 0312/0418 35015G25KT 9999 BKN030
TN05/0321Z TX09/0405Z
BECMG 0314/0315 35010KT
BECMG 0413/0414 SCT030

Indonesia, Pakistan, Singapore, India, Sri Lanka, United Arab Emirates

The availability of aerodrome forecasts from overseas locations is dependent on the regular international exchange of data. Some locations may at times be absent. If this problem persists, please advise webav@bom.gov.au

 back to top

WIII 03/12/2020 UTC

TAF WIII 031100Z 0312/0418 26005KT 7000 SCT020 TEMPO 0313/0317
30010G20KT 3000 TSRA FEW018CB OVC020 BECMG 0401/0403 30010KT TEMPO
0412/0415 3000 TSRA FEW018CB OVC020

WSSS 03/12/2020 UTC

TAF WSSS 031100Z 0312/0418 33008KT 9999 FEW015 SCT020
TEMPO 0406/0410 3000 TSRA FEW012CB BKN015

VCBI 03/12/2020 UTC

TAF VCBI 031100Z 0312/0418 29006KT 9999 FEW014 SCT017 TX29/0408Z
TN23/0400Z
BECMG 0314/0316 VRB05KT PROB30
TEMPO 0318/0400 -SHRA FEW014 SCT017 FEW020CB

VECC 03/12/2020 UTC

TAF VECC 030500Z 0306/0412 35005KT 2800 BR NSC
BECMG 0308/0310 3500 HZ
BECMG 0316/0318 00000KT 2800 BR
BECMG 0400/0402 1200 BR
BECMG 0404/0406 35005KT 2800 BR
BECMG 0408/0410 3500 HZ

VOMM 03/12/2020 UTC

TAF VOMM 031100Z 0312/0418 05010KT 3000 RA/DZ SCT015 OVC080
TEMPO 0312/0318 07020G35KT 1500 +TSRA/RA SCT012 FEW025CB
OVC080
TEMPO 0318/0324 05020G35KT 1500 +TSRA/RA SCT012 FEW025CB
OVC080
TEMPO 0400/0406 05015G25KT 1500 +TSRA/RA SCT012 FEW025CB
OVC080

VOTV 03/12/2020 UTC

TAF VOTV 031100Z 0312/0418 33010KT 5000 HZ FEW012 SCT015 BKN080
TEMPO 0312/0321 33010G25KT 2500 TSRA RA BR SCT008 SCT012
FEW025CB BKN080
BECMG 0322/0403 33010KT 3000 RA BR SCT010 SCT012 FEW025CB
BKN080
TEMPO 0406/0415 33010G25KT 2000 TSRA RA SCT008 SCT012
FEW025CB BKN080
BECMG 0416/0418 3000 RA

VABB 03/12/2020 UTC

TAF VABB 031100Z 0312/0418 33007KT 3000 FU FEW100
BECMG 0316/0318 03005KT
BECMG 0321/0323 09005KT 2500 HZ
BECMG 0404/0406 3000 FU
BECMG 0406/0408 28008KT 4000 FU FEW020
BECMG 0413/0415 34005KT 3000 FU FEW100

VAAH 03/12/2020 UTC

TAF VAAH 031100Z 0312/0418 06006KT 4000 HZ FU NSC
BECMG 0314/0316 02005KT
BECMG 0401/0403 04006KT 2000 HZ FU
BECMG 0404/0406 08006KT 5000 FU
BECMG 0407/0409 33006KT 6000
BECMG 0412/0414 VRB03KT 4000 HZ FU

VILK 03/12/2020 UTC

TAF VILK 031100Z 0312/0418 VRB02KT 1500 BR HZ NSC
BECMG 0319/0321 0800 MIFG FG
BECMG 0400/0402 0400 FG NSC
BECMG 0405/0407 29004KT 1000 BR HZ
BECMG 0409/0411 2000 HZ
BECMG 0415/0417 0800 MIFG FG

VANP 02/12/2020 UTC

TAF VANP 022300Z 0300/0406 00000KT 2000 BR HZ NSC
BECMG 0304/0306 02004KT 4000 HZ FEW0100
BECMG 0316/0318 00000KT 3000 HZ NSC
TEMPO 0400/0402 10002KT 2000 BR HZ FEW100
BECMG 0404/0406 09004KT 3000 HZ NSC

VRMM 03/12/2020 UTC

TAF VRMM 031100Z 0312/0418 28018KT 9999 FEW017TCU SCT120 TEMPO
0315/0321 26020G35KT 5000 -TSRA FEW017CB

VOHS 03/12/2020 UTC

TAF VOHS 030500Z 0306/0412 08007KT 5000 HZ SCT015 SCT100 BECMG
0307/0309 10010KT 6000 SCT015 SCT025 BECMG 0314/0316 10006KT 5000 HZ
FEW015 SCT100 BECMG 0321/0323 07005KT 3000 BR NSC TEMPO 0323/0403
VRB04KT 1500 BR BKN010 BECMG 0403/0405 08007KT 5000 HZ SCT015 BECMG
0405/0407 12010KT 6000 FEW020 SCT025

OPKC 03/12/2020 UTC

TAF OPKC 031000Z 0312/0418 27010KT 5000 HZ NSC FM 28007KT 4000 HZ
NSC TEMPO 0400/0406 02005KT 2000 FU NSC FM 25010KT 5000 HZ NSC

OBBI 03/12/2020 UTC

TAF OBBI 031100Z 0312/0418 01010KT 9999 FEW025 PROB30 TEMPO
0400/0405 4000 HZ SCT010

OMAA 03/12/2020 UTC

TAF OMAA 031100Z 0312/0418 33010KT CAVOK
BECMG 0318/0320 VRB02KT
PROB30 TEMPO 0400/0405 1500 BR BKN004
BECMG 0406/0408 32012KT

OMDB 03/12/2020 UTC

TAF OMDB 031100Z 0312/0418 30010KT CAVOK
BECMG 0316/0318 VRB02KT
PROB30 0400/0405 4000 HZ
BECMG 0407/0409 29010KT
BECMG 0415/0417 VRB02KT

OOMS 03/12/2020 UTC

TAF OOMS 030500Z 0306/0412 35010KT 8000 NSC BECMG 0315/0317 24005KT
BECMG 0406/0408 35010KT

OMSJ 03/12/2020 UTC

TAF OMSJ 031100Z 0312/0418 30010KT CAVOK
BECMG 0315/0317 VRB02KT
PROB30 0322/0405 3000 BR BKN007
BECMG 0407/0409 29010KT
BECMG 0415/0417 VRB02KT

Malawi, Mauritius, South Africa, Zambia, Zimbabwe

The availability of aerodrome forecasts from overseas locations is dependent on the regular international exchange of data. Some locations may at times be absent. If this problem persists, please advise webav@bom.gov.au

 back to top

FIMP 03/12/2020 UTC

TAF FIMP 031100Z 0312/0418 07010KT 9999 SCT017 BECMG 0318/0320
33002KT PROB30 TEMPO 0400/0403 7000 -SHRA FEW010 SCT015 BKN050
BECMG 0404/0406 08010KT

FMEE 03/12/2020 UTC

TAF FMEE 031100Z 0312/0418 03005KT 9999 FEW025 BECMG 0314/0316
14005KT PROB30 TEMPO 0316/0402 2000 SHRA BECMG 0404/0406 08013KT
BECMG 0414/0416 14005KT

FLKK 03/12/2020 UTC

TAF FLKK 031000Z 0312/0418 10010KT 9000 -TSRA FEW030CB BKN035
BECMG 0316/0318 07005KT 9999 FEW035CB BKN040
PROB30 TEMPO 0320/0322 VRB03KT 9000 -TSRA
BECMG 0402/0404 09005G10KT 9999 SCT008 BKN080

FWKI 03/12/2020 UTC

TAF FWKI 031000Z 0312/0418 05005KT 9999 FEW025CB SCT030 BKN080 PROB30
TEMPO 0312/0316 07006KT 7000 -TSRA FEW025CB BKN030 BKN080 PROB30
TEMPO 0406/0410 07010KT 7000 -RA FEW018 BKN022 BKN080 BECMG
0412/0414 FEW025CB SCT028 BKN080

FAOR 03/12/2020 UTC

TAF FAOR 031000Z 0312/0418 35012KT 9999 BKN030
TX23/0412Z TN14/0403Z
FM031500 35011KT CAVOK
BECMG 0320/0322 05008KT SCT015
PROB30 TEMPO 0322/0402 BKN005
FM040900 35008KT 9999 SCT045
PROB30 TEMPO 0416/0418 -TSRA FEW045CB

FVHA

TAF not available.

FAWK 03/12/2020 UTC

TAF FAWK 030900Z 0310/0318 04010KT 9999 BKN020
TX22/0314Z TN18/0318Z
FM031400 04010KT CAVOK

FABL 03/12/2020 UTC

TAF FABL 031000Z 0312/0412 03310KT CAVOK TX28/0313Z TN10/0404Z

FALE 03/12/2020 UTC

TAF FALE 031000Z 0312/0418 07012KT 9999 BKN035
TX24/0312Z TN19/0404Z
PROB40 TEMPO 0314/0318 15020KT 3500 TSRA BKN015 FEW035CB
PROB30 TEMPO 0319/0322 5000 SHRA BKN015 FEW035TCU
BECMG 0402/0404 18008KT
TEMPO 0405/0418 5000 -RA BKN015

YPCC 03/12/2020 UTC

TAF YPCC 031110Z 0312/0412
13014KT 9999 SCT018 BKN025
FM040100 13014KT 9999 SCT025
RMK
T 27 27 27 26 Q 1010 1012 1011 1009

United States (includes Hawaii) and Mexican emergency/alternates

The availability of aerodrome forecasts from overseas locations is dependent on the regular international exchange of data. Some locations may at times be absent. If this problem persists, please advise webav@bom.gov.au

 back to top

PHNL 03/12/2020 UTC

TAF PHNL 031127Z 0312/0418 34004KT P6SM FEW025 SCT040
FM032200 11010KT P6SM FEW025 SCT040
FM040400 05010KT P6SM FEW030 SCT050
FM041000 02007KT P6SM FEW030 SCT050

PHLI 03/12/2020 UTC

TAF PHLI 031127Z 0312/0412 31005KT P6SM FEW035
FM032100 06011KT P6SM FEW035
FM040900 36011KT P6SM FEW035 SCT050

PHOG 03/12/2020 UTC

TAF PHOG 031127Z 0312/0412 12005KT P6SM SKC
FM032000 03011G19KT P6SM FEW040 SCT060
FM040400 05008KT P6SM FEW040 SCT060
AMD LTD TO VIS AND WIND TIL 031600

PHTO 03/12/2020 UTC

TAF PHTO 031127Z 0312/0412 24004KT P6SM SCT050
FM032000 08008KT P6SM FEW030 BKN050
FM040200 18004KT P6SM VCSH SCT025 OVC040
FM040800 24004KT P6SM -SHRA SCT012 BKN025 OVC040

PKMJ 03/12/2020 UTC

TAF AMD PKMJ 030930Z 0310/0406 05012KT P6SM VCSH SCT015 BKN120
TEMPO 0310/0311 05013G25KT 2SM TSRA BKN015CB OVC100

KLAX 03/12/2020 UTC

TAF KLAX 031124Z 0312/0418 01005KT P6SM SCT250
FM031400 06005KT P6SM SCT250
FM032100 26008KT P6SM SCT250
FM040400 VRB03KT P6SM SCT250

KONT 03/12/2020 UTC

TAF KONT 031122Z 0312/0418 05025G35KT P6SM SKC
FM031700 04015G25KT P6SM SKC
FM032200 03008G16KT P6SM SKC
FM040200 04005KT P6SM SKC

KPMD 03/12/2020 UTC

TAF KPMD 031124Z 0312/0412 04006KT P6SM SCT250
FM031400 08012G18KT P6SM SCT250
FM040000 08008KT P6SM SCT250
FM040300 VRB04KT P6SM SCT250

KSAN 03/12/2020 UTC

TAF KSAN 031122Z 0312/0418 VRB04KT P6SM SKC WS015/07025KT
FM031500 08008KT P6SM SKC
FM032000 33010KT P6SM SKC
FM040200 VRB05KT P6SM SKC

KLAS 03/12/2020 UTC

TAF KLAS 031120Z 0312/0418 VRB06KT P6SM SKC
FM032000 05007KT P6SM SKC
FM040300 21007KT P6SM SKC

KOAK 03/12/2020 UTC

TAF KOAK 030534Z 0306/0412 26003KT P6SM SCT200
FM030900 07003KT P6SM FEW007 SCT200
FM031500 12004KT P6SM FEW150
FM032100 29007KT P6SM FEW150
FM040300 31004KT P6SM FEW005 FEW150

KSFO 03/12/2020 UTC

TAF KSFO 030905Z 0309/0412 29005KT P6SM FEW005 SCT180
FM031100 30007KT P6SM SCT007
FM031500 10003KT P6SM FEW150
FM032300 29007KT P6SM FEW150

KSMF 03/12/2020 UTC

TAF KSMF 031120Z 0312/0412 VRB04KT P6SM SKC

KSCK 03/12/2020 UTC

TAF KSCK 031120Z 0312/0412 VRB05KT 5SM BR SKC
FM031800 VRB04KT P6SM SKC
FM040900 30003KT 6SM BR SKC

KFAT 03/12/2020 UTC

TAF KFAT 031120Z 0312/0412 VRB04KT 6SM HZ SKC
TEMPO 0313/0317 4SM HZ
FM031900 VRB03KT 6SM HZ SKC

KJFK 03/12/2020 UTC

TAF KJFK 031130Z 0312/0418 25013KT P6SM FEW250
FM040400 22010KT P6SM BKN120
FM041600 22012KT P6SM BKN080

KPHL 03/12/2020 UTC

TAF KPHL 031120Z 0312/0418 24005KT P6SM FEW200
FM040100 21006KT P6SM SCT150
FM040700 VRB04KT P6SM BKN100
FM041300 21006KT P6SM BKN080

KPIT 03/12/2020 UTC

TAF KPIT 031122Z 0312/0418 21005KT P6SM SCT250
FM031600 22008KT P6SM SCT050
FM032300 25005KT P6SM SCT100

KDEN 03/12/2020 UTC

TAF KDEN 031120Z 0312/0418 25009KT P6SM SKC
FM032000 01011KT P6SM SKC
FM040000 30007KT P6SM SKC
FM040200 23008KT P6SM FEW250

KMCI 03/12/2020 UTC

TAF KMCI 031053Z 0311/0406 06006KT P6SM BKN025
FM031700 36006KT P6SM FEW025 BKN120
FM032000 30005KT P6SM SKC

KDFW 03/12/2020 UTC

TAF KDFW 031120Z 0312/0418 30006KT P6SM BKN025
FM031400 30007KT P6SM BKN015
FM031900 32011KT P6SM BKN025
FM032300 33011KT P6SM BKN035
FM040200 33009KT P6SM SCT035
FM041100 31005KT P6SM FEW150

KAUS 03/12/2020 UTC

TAF KAUS 031120Z 0312/0418 33008KT P6SM FEW250
FM031500 33014KT P6SM FEW250
FM040000 34008KT P6SM FEW250

KELP 03/12/2020 UTC

TAF KELP 031120Z 0312/0412 07008KT P6SM SCT090
FM031800 08006KT P6SM FEW090
FM040000 12005KT P6SM FEW090

KIAH 03/12/2020 UTC

TAF KIAH 031125Z 0312/0418 33010G20KT P6SM SCT050 BKN250
FM032200 33010KT P6SM BKN250
FM040300 33006KT P6SM FEW250

KSAT 03/12/2020 UTC

TAF KSAT 031120Z 0312/0418 33008KT P6SM FEW250
FM031500 34014KT P6SM FEW250
FM032000 34009KT P6SM FEW250

KTUS 03/12/2020 UTC

TAF KTUS 031129Z 0312/0412 10012G18KT P6SM SCT200 WS020/10040KT
FM031600 10026G35KT P6SM SKC
FM032100 10019G26KT P6SM SKC
FM040000 10010KT P6SM SKC
FM041000 VRB04KT P6SM SKC

MMCU 03/12/2020 UTC

TAF MMCU 030423Z 0306/0406 02008KT P6SM SKC
FM031800 03012KT P6SM SCT250
FM040500 02006KT P6SM SKC

MMHO 03/12/2020 UTC

TAF MMHO 030322Z 0306/0406 00000KT P6SM SKC
FM031800 28010KT P6SM SCT250
FM040500 33005KT P6SM SKC

MMLT 03/12/2020 UTC

TAF MMLT 030415Z 0306/0406 00000KT P6SM 36014KT P6SM SCT250
FM040500 02006KT P6SM SKC

MMSD 03/12/2020 UTC

TAF MMSD 030415Z 0306/0406 27005KT P6SM SKC
FM031800 30010KT P6SM SCT040 SCT250
FM040500 30005KT P6SM SKC

Papua New Guinea, Southwest Pacific

The availability of aerodrome forecasts from overseas locations is dependent on the regular international exchange of data. Some locations may at times be absent. If this problem persists, please advise webav@bom.gov.au

 back to top

NWWW 03/12/2020 UTC

TAF NWWW 031100Z 0312/0412 10008KT 9999 FEW040 SCT060 TEMPO 0403/0406
4000 SHRA FEW020CB

NFFN 03/12/2020 UTC

TAF NFFN 031127Z 0312/0412
13008KT 9999 SCT028 SCT048 BKN100
BECMG 0322/0324 31012KT
TEMPO 0401/0406 3000 TSRA BKN015 FEW016CB
BECMG 0403/0405 12006KT
TEMPO 0406/0412 2000 +TSRA BKN008 FEW015CB

NFNA 03/12/2020 UTC

TAF NFNA 031129Z 0312/0412
11008KT 9999 -SHRA SCT020 SCT045
PROB40 TEMPO 0312/0324 5000 SHRA BKN015
TEMPO 0400/0406 5000 TSRA BKN015 FEW018CB
TEMPO 0406/0412 3000 TSRA BKN015 FEW016CB

NFTF 03/12/2020 UTC

TAF NFTF 031107Z 0312/0412
11008KT 9999 SCT016 SCT100
PROB30 TEMPO 0406/0412 5000 SHRA BKN015

NSTU 03/12/2020 UTC

TAF NSTU 031127Z 0312/0412 10006KT P6SM VCSH SCT015 SCT035 BKN100
FM032100 10009KT P6SM -SHRA SCT025 BKN045 OVC100
FM040900 07006KT P6SM VCSH SCT015 SCT035 BKN100

NVVV 03/12/2020 UTC

TAF NVVV 031000Z 0312/0412 16006KT 9999 SCT020 BKN040 OVC110
INTER 0312/0318 8000 SHRA FEW008 BKN018

NCRG 03/12/2020 UTC

TAF NCRG 031106Z 0312/0412
18008KT 9999 FEW015 SCT020 BKN075
PROB30 TEMPO 0312/0318 5000 SHRA BKN015
PROB30 TEMPO 0400/0408 5000 TSRA BKN015 FEW018CB

NTAA 03/12/2020 UTC

TAF NTAA 031100Z 0312/0418 VRB05KT 9999 FEW020 SCT045 PROB30 TEMPO
0315/0322 05015G25KT 3000 SHRA SCT018TCU BKN040 PROB40 TEMPO
0403/0410 05015G25KT 3000 TSRA SCT015CB BKN040

NTTG

TAF not available.

NTTO

TAF not available.

NSFA 03/12/2020 UTC

TAF NSFA 031111Z 0312/0412
15007KT 9999 -SHRA FEW020 BKN100
PROB40 TEMPO 0312/0412 5000 TSRA BKN015 FEW017CB

ANYN

TAF not available.

AGGH 03/12/2020 UTC

TAF AGGH 031110Z 0312/0412

AGGM 03/12/2020 UTC

TAF AGGM 031110Z 0312/0412 11008KT 9999 FEW016 BKN100

INTER 0312/0318 4000 SHRA SCT016 BKN028

Q 1010 1008 1007 1009

AGGN 03/12/2020 UTC

TAF AGGN 031110Z 0312/0412 05010KT 9999 FEW016 BKN100

INTER 0312/0318 4000 SHRA SCT016 BKN028

Q 1010 1008 1007 1009

AYPY 03/12/2020 UTC

TAF AYPY 030330Z 0306/0406 17008KT 9999 -SHRA SCT018 BKN040
FM030900 VRB03KT 9999 -RADZ BKN040 PROB30 0306/0309 5000
-TSRA
BKN010 FEW018CB T 31 29 28 27 Q 1004 1005 1007 1006

AYNZ

TAF not available.

AYMD

TAF not available.

AYMH

TAF not available.

AYTA

TAF not available.

PKMJ 03/12/2020 UTC

TAF AMD PKMJ 030930Z 0310/0406 05012KT P6SM VCSH SCT015 BKN120
TEMPO 0310/0311 05013G25KT 2SM TSRA BKN015CB OVC100

NGTA 03/12/2020 UTC

TAF NGTA 031114Z 0312/0412
10009KT 9999 FEW020 BKN040
PROB30 TEMPO 0403/0406 5000 SHRA BKN015
PROB40 TEMPO 0406/0412 5000 TSRA BKN015 FEW018CB

PTRO 03/12/2020 UTC

TAF PTRO 030532Z 0306/0406 VRB05KT P6SM VCSH SCT015 SCT120

YLHI 03/12/2020 UTC

TAF YLHI 031106Z 0312/0412
09014KT 5000 -SHRA BKN008
FM040000 30006KT 9999 -SHRA BKN015
FM040600 31010KT 9999 -SHRA SCT020
TEMPO 0312/0400 3000 DZ BKN005
PROB30 TEMPO 0400/0406 3000 TSRA BKN008 FEW080CB
RMK
T 20 20 20 22 Q 1019 1017 1017 1016

YSNF 03/12/2020 UTC

TAF YSNF 031107Z 0312/0412
VRB03KT 9999 SCT025
RMK
T 18 18 18 21 Q 1020 1017 1017 1018

Indonesia, Timor Leste, Papua New Guinea

The availability of aerodrome forecasts from overseas locations is dependent on the regular international exchange of data. Some locations may at times be absent. If this problem persists, please advise webav@bom.gov.au

 back to top

WAAA 03/12/2020 UTC

TAF WAAA 031100Z 0312/0418 11005KT 8000 SCT019
TEMPO 0312/0317 5000 TSRA FEW018CB
BECMG 0402/0404 29010KT 9999

WAMM 03/12/2020 UTC

TAF WAMM 031100Z 0312/0418 25005KT 9000 SCT020
BECMG 0322/0401 VRB03KT

WAMP

TAF not available.

WAJJ 03/12/2020 UTC

TAF WAJJ 031100Z 0312/0412 27002KT 9999 SCT013
BECMG 0314/0316 00000KT
BECMG 0321/0323 15005KT

WAPP 03/12/2020 UTC

TAF WAPP 031100Z 0312/0412 34007KT 9000 BKN015

WABB 03/12/2020 UTC

TAF WABB 031100Z 0312/0418 00000KT 9999 SCT018
BECMG 0322/0400 06006KT
TEMPO 0404/0408 5000 RA FEW017CB
BECMG 0410/0412 00000KT

WPDL 03/12/2020 UTC

TAF WPDL 030514Z 0306/0318
02010KT 9999 -SHRA FEW020 SCT040
FM031200 06010KT 9999 NSW BKN020
TEMPO 0306/0312 VRB15G25KT 1000 TSRA BKN010 SCT020CB
RMK
T 30 27 26 25 Q 1006 1006 1008 1008

WATT 03/12/2020 UTC

TAF WATT 031100Z 0312/0412 13005KT 8000 SCT017
TEMPO 0403/0407 5000 -TSRA FEW015CB BKN016

WIII 03/12/2020 UTC

TAF WIII 031100Z 0312/0418 26005KT 7000 SCT020 TEMPO 0313/0317
30010G20KT 3000 TSRA FEW018CB OVC020 BECMG 0401/0403 30010KT TEMPO
0412/0415 3000 TSRA FEW018CB OVC020

WIHH 03/12/2020 UTC

TAF WIHH 031100Z 0312/0412 28008KT 6000 SCT020 BECMG 0313/0315 20005KT 5000 HZ

WIMM 03/12/2020 UTC

TAF WIMM 031100Z 0312/0412 VRB12KT 4000 BR FEW016CB BKN017
TEMPO 0312/0316 TSRA
BECMG 0402/0404 36010KT 9999 NSW SCT020

WARR 03/12/2020 UTC

TAF WARR 031100Z 0312/0412 22008KT 8000 SCT020
TEMPO 0312/0314 5000 -TSRA SCT018CB
BECMG 0318/0320 24003KT 5000 HZ
BECMG 0401/0403 08010KT 9999 NSW

WADD 03/12/2020 UTC

TAF WADD 031100Z 0312/0412 27010KT 9999 SCT016
TEMPO 0400/0404 FEW015CB
TEMPO 0406/0410 5000 RA FEW015CB

AYPY 03/12/2020 UTC

TAF AYPY 030330Z 0306/0406 17008KT 9999 -SHRA SCT018 BKN040
FM030900 VRB03KT 9999 -RADZ BKN040 PROB30 0306/0309 5000
-TSRA
BKN010 FEW018CB T 31 29 28 27 Q 1004 1005 1007 1006

AYNZ

TAF not available.

AYMH

TAF not available.

AYMD

TAF not available.

AYHK

TAF not available.

AYTK

TAF not available.

AYVN

TAF not available.

AYWK

TAF not available.

AYGA

TAF not available.

AYDU

TAF not available.

AYMS

TAF not available.

AYRB

TAF not available.

AYTB

TAF not available.

AYKI

TAF not available.

AYKT

TAF not available.

AYBK

TAF not available.

AYKM

TAF not available.

AYKY

TAF not available.

AYMO

TAF not available.

AYKV

TAF not available.

Accessing this Service

By entering this site, you acknowledge that this information is produced solely for use by the aviation industry, and you are aware that any information for the purposes of flight planning should be obtained from Airservices Australia.